Liste des engagé(e)s
Classement
PDF
   
         
   
 
Pos Nom Prénom Pays Temps Ecart Pl. Cat. Pl. Sexe Club
1 64 SEPPI Andrea 00:33:28 1 SE 1 M
2 66 MONNET Yannick 00:33:32 04 1 V1 2 M COUREURS DU MONDE EN ISERE*
3 65 PELLÉ Ludovic 00:33:56 28 2 V1 3 M COUREURS DU MONDE EN ISERE*
4 22 SOLDINI Nicolas 00:35:14 01:46 2 SE 4 M S/L AL ECHIROLLES
5 253 GENEVOIS Joris 00:35:45 02:17 1 ES 5 M
6 236 GHIBAUDO William 00:36:16 02:48 3 V1 6 M
7 235 DEVAUX Francois 00:36:27 02:59 3 SE 7 M
8 252 JACQUIER Aurelien 00:36:30 03:02 4 SE 8 M
9 200 BAUDA Pierre 00:37:11 03:43 4 V1 9 M
10 206 TURIN Frederic 00:37:13 03:45 5 V1 10 M
11 209 MARION Julien 00:37:17 03:49 1 JU 11 M
12 67 AUNE Arnaud 00:37:32 04:04 6 V1 12 M
13 237 DERRIEN Franck 00:37:37 04:09 5 SE 13 M
14 201 BERNET Damien 00:37:57 04:29 2 ES 14 M
15 203 PRADOS Vincent 00:38:32 05:04 1 V2 15 M
16 35 DECARD Frédéric 00:38:34 05:06 7 V1 16 M AL SAINT-MARCELLIN
17 221 GIRARD Leo 00:38:50 05:22 2 JU 17 M
18 51 FILIOL Hubert 00:39:15 05:47 6 SE 18 M
19 24 VERBEKE Damien 00:39:32 06:04 8 V1 19 M S/L GRENOBLE UC
20 233 CICUT Martin 00:39:46 06:18 1 CA 20 M
21 15 DI NATALE Cyril 00:39:48 06:20 7 SE 21 M
22 251 PASSI Jean Jacques 00:39:52 06:24 8 SE 22 M
23 227 ALEXANDRE Cedric 00:41:08 07:40 9 V1 23 M
24 55 BOUET Clément 00:41:08 07:40 3 ES 24 M
25 208 MILESI Bernard 00:41:23 07:55 1 V3 25 M
26 8 BOREL Claude 00:41:31 08:03 2 V3 26 M AL SAINT-MARCELLIN
27 229 GARAUD Jacques 00:41:58 08:30 2 V2 27 M
28 212 WINTER Sylvain 00:42:10 08:42 9 SE 28 M
29 46 ROUSTAN Louis 00:42:24 08:56 2 CA 29 M
30 240 GUENARD Claude 00:42:25 08:57 3 V2 30 M
31 25 GAUTHIER Raphael 00:42:34 09:06 10 SE 31 M S/L FOULEE DE VARCES VIF
32 222 MUNCH Didier 00:42:35 09:07 10 V1 32 M
33 224 GUILLEMIN Pierre 00:42:37 09:09 4 V2 33 M
34 47 ROUSTAN Herve 00:42:41 09:13 11 V1 34 M
35 213 ISNARD Raphael 00:43:02 09:34 12 V1 35 M
36 68 ROCHAS Helene 00:43:06 09:38 1 V1 1 F S/L COURSE A PIED VERCORS
37 52 PALUMBO Stéphane 00:43:10 09:42 13 V1 36 M
38 219 BIARD Jeremy 00:43:14 09:46 14 V1 37 M
39 59 TIKA Mohamed amine 00:43:32 10:04 11 SE 38 M
40 33 WILLAMOWSKI Jutta 00:43:52 10:24 1 V2 2 F
41 218 CROUHY Florent 00:43:55 10:27 15 V1 39 M
42 239 BRUCHET Philippe 00:43:59 10:31 5 V2 40 M
43 49 LLOPARD Ivan 00:44:00 10:32 12 SE 41 M S/L ASPTT GRENOBLE
44 254 PALOMARES Ludivine 00:44:12 10:44 1 SE 3 F
45 264 GIROUD Severin 00:44:56 11:28 16 V1 42 M
46 3 PHILIP David 00:44:56 11:28 17 V1 43 M
47 54 PINCEBOURDE Chloé 00:45:10 11:42 1 ES 4 F S/L FOULEE DE VARCES VIF
48 202 SALINS Arnolds 00:45:50 12:22 13 SE 44 M
49 21 THEVENON Emmanuel 00:45:59 12:31 14 SE 45 M S/L CA MOIRANS
50 231 REVEL Benoit 00:45:59 12:31 15 SE 46 M
51 207 FAURY Jean-Francois 00:46:04 12:36 6 V2 47 M
52 71 TICHADOU Pierre 00:46:41 13:13 3 V3 48 M AS IBM LYON
53 7 JAMIN Nicolas 00:46:43 13:15 16 SE 49 M
54 228 AUBOIROUX Vincent 00:46:43 13:15 17 SE 50 M
55 39 FRANCHEQUIN Fanny 00:47:19 13:51 2 ES 5 F AC EVIAN
56 14 AUFFRANC Alexandre 00:47:25 13:57 18 SE 51 M
57 223 PIRA Fabien 00:47:27 13:59 18 V1 52 M
58 60 BERGER Estelle 00:47:38 14:10 2 V1 6 F S/L AL ECHIROLLES
59 11 JULLIEN Georges 00:47:55 14:27 1 V4 53 M
60 18 ROUXINOL Rui 00:48:04 14:36 19 V1 54 M
61 234 MEUNIER CAMUS Gregory 00:48:09 14:41 19 SE 55 M
62 23 LEWA Florence 00:48:17 14:49 3 V1 7 F
63 58 GUICHARD Karen 00:48:19 14:51 4 V1 8 F
64 230 CORRAO Nicolas 00:48:26 14:58 7 V2 56 M
65 258 LEFEVRE Sebastien 00:49:09 15:41 20 V1 57 M
66 256 GIRKA Stephane 00:49:18 15:50 4 V3 58 M
67 53 PANCIOLI Sebastien 00:49:26 15:58 20 SE 59 M
68 257 BALDET Marine 00:49:27 15:59 2 SE 9 F
69 28 CAQUAS Julie 00:49:33 16:05 3 SE 10 F
70 41 DUNHILL PLANCHET Rebecca 00:49:36 16:08 5 V1 11 F
71 19 ROUXINOL Virginie 00:49:36 16:08 6 V1 12 F S/L FOULEE DE VARCES VIF
72 6 JAMIN Jean-marie 00:49:46 16:18 5 V3 60 M
73 16 ROGER Etienne 00:49:48 16:20 21 SE 61 M
74 238 NEWILLER Olivier 00:50:02 16:34 22 SE 62 M
75 260 HUGHES Antoine 00:50:03 16:35 1 MI 63 M
76 9 MERESSE Fleurine 00:50:27 16:59 7 V1 13 F AL SAINT-MARCELLIN
77 69 BERTOJO Laura 00:50:29 17:01 3 ES 14 F
78 40 BOUTTOU Nadia 00:50:51 17:23 4 SE 15 F
79 50 RIOLAND Frédéric 00:51:01 17:33 23 SE 64 M
80 37 TEYRE Fabrice 00:51:09 17:41 21 V1 65 M
81 12 COUTARD Philippe 00:51:09 17:41 22 V1 66 M
82 241 PFAUWADEL Thierry 00:51:16 17:48 6 V3 67 M
83 48 ADMIRAT Sylvain 00:51:24 17:56 8 V2 68 M
84 4 TRECH Geneviève roselyne 00:51:29 18:01 5 SE 16 F
85 70 FAGOT Matthieu 00:51:40 18:12 4 ES 69 M
86 204 DAMARO Frederic 00:51:51 18:23 23 V1 70 M
87 255 MILESI Frederic 00:51:56 18:28 24 V1 71 M
88 34 BENSAIDANE Soraya 00:52:55 19:27 6 SE 17 F
89 20 TRINIDAD Sandra 00:53:03 19:35 8 V1 18 F
90 63 DESOUTTER Jennifer 00:53:03 19:35 7 SE 19 F
91 225 BERILLET Virgine 00:53:04 19:36 9 V1 20 F
92 261 ZEM-ZEM Adam 00:53:11 19:43 2 MI 72 M
93 217 DUFRESNE Julia 00:53:39 20:11 1 CA 21 F
94 42 HOGSTROM CHAPUIS Maria 00:53:56 20:28 2 V2 22 F
95 5 MARTINEAU Lucie 00:54:00 20:32 8 SE 23 F
96 232 PUEL Alain 00:54:23 20:55 7 V3 73 M
97 45 SOUBRIER Roland 00:54:36 21:08 25 V1 74 M
98 220 GRETZ Alain 00:54:52 21:24 8 V3 75 M
99 215 BURNICHON Dominique 00:56:06 22:38 9 V3 76 M
100 31 DEROUX Alain 00:56:29 23:01 2 V4 77 M
101 44 LONDICHE Christophe 00:56:35 23:07 26 V1 78 M
102 216 MONIEZ Yannick 00:56:44 23:16 27 V1 79 M
103 2 DEGRENDELE Chantal 00:56:50 23:22 1 V3 24 F
104 1 GROSSETETE Pierre 00:56:50 23:22 10 V3 80 M
105 36 GENIN Marie 00:56:52 23:24 2 CA 25 F AL SAINT-MARCELLIN
106 30 DEROUX Marie-france 00:57:22 23:54 2 V3 26 F
107 32 LA GRECA Marie christine 00:57:51 24:23 3 V2 27 F
108 210 WINTER Francoise 00:58:03 24:35 3 V3 28 F
109 205 BUFFAUNENE Nathalie 00:58:09 24:41 9 SE 29 F
110 263 TRIOLET Ugolin 00:59:32 26:04 1 EA 81 M
111 211 MAUPRIVEZ Monique 01:00:02 26:34 4 V3 30 F
112 214 LADJALI Mohamed 01:00:03 26:35 3 V4 82 M
113 26 STARON Cécile 01:01:31 28:03 10 V1 31 F
114 27 GIRAUDEL Isabelle 01:01:31 28:03 11 V1 32 F
115 259 GIRAUDEL Ninon 01:01:31 28:03 1 MI 33 F
116 61 CHEVALIER Alexandre 01:02:35 29:07 28 V1 83 M
117 62 MARION Olivier 01:02:37 29:09 9 V2 84 M
118 226 BILLON Emmanuel 01:04:54 31:26 29 V1 85 M
119 38 TEYRE Nadege 01:05:24 31:56 12 V1 34 F
120 56 DE VOS Stephanie 01:07:53 34:25 13 V1 35 F
121 57 DE VOS Yan 01:07:53 34:25 30 V1 86 M
122 29 ARSLANIAN Anna 01:21:21 47:53 14 V1 36 F
  La Ronde du Muguet - 10km 2019
 
Nombre ou lettres (3 minimum)
Classement    
Filtre :
Rang :